• Join FlightAware (Why Join?)
  • Login
  • US Flag 
12:33PM EDT


 

Airport Tracker/Info


-or-


 

Live Flight TrackerFlight Track Log ✈ UAL780 ✈ 20-Jul-2013 ✈ KIAH - KPDX

Flight Track Log - Related Links

Times and Time Zones

All times are in EDT time to prevent confusion due to time zone crossing. See the UAL780 flight status page for this flight to view local times or setup timezone preferences in your user account.

Time Position Orientation Groundspeed Altitude Reporting Facility
EDT Latitude Longitude Course Direction KTS MPH feet Rate Location/Type
10:26AM 29.9556 -95.3444 291° West 166 191 900  Level Houston Center
10:27AM 29.9233 -95.3819 225° Southwest 209 241 2,200 1,620 Climbing Houston Center
10:28AM 29.9194 -95.4614 267° West 246 283 4,100 2,220 Climbing Houston Center
10:29AM 30.0273 -95.7394 277° West  Level FlightAware Approximate
10:29AM 29.9283 -95.5447 277° West 262 302 6,800  Level Houston Center
10:30AM 30.0397 -95.8758 276° West  Level FlightAware Approximate
10:30AM 29.9547 -95.6361 288° West 288 331 9,600  Level Houston Center
10:31AM 30.0538 -96.0115 291° West  Level FlightAware Approximate
10:31AM 29.9789 -95.7253 287° West 296 341 11,100  Level Houston Center
10:32AM 30.0094 -95.8367 288° West 365 420 11,900 1,200 Climbing Houston Center
10:33AM 30.0414 -95.9556 287° West 388 447 13,700 1,740 Climbing Houston Center
10:34AM 30.0764 -96.0944 286° West 395 455 15,500 1,500 Climbing Houston Center
10:35AM 30.0953 -96.2244 280° West 409 471 16,800 1,320 Climbing Houston Center
10:36AM 30.1172 -96.3575 281° West 421 484 18,300 1,380 Climbing Houston Center
10:37AM 30.1383 -96.4997 280° West 430 495 19,700 1,320 Climbing Houston Center
10:38AM 30.1594 -96.6400 280° West 437 503 21,100 1,200 Climbing Houston Center
10:39AM 30.1842 -96.8042 280° West 440 506 22,300 1,080 Climbing Houston Center
10:40AM 30.2058 -96.9483 280° West 447 514 23,400 840 Climbing Houston Center
10:41AM 30.2275 -97.0961 280° West 456 525 24,100 660 Climbing Houston Center
10:42AM 30.2558 -97.2458 282° West 469 540 24,800 840 Climbing Houston Center
10:43AM 30.2953 -97.3922 287° West 469 540 25,900 840 Climbing Houston Center
10:44AM 30.3350 -97.5378 288° West 468 539 26,600 720 Climbing Houston Center
10:45AM 30.3736 -97.6858 287° West 472 543 27,400 840 Climbing Houston Center
10:46AM 30.4164 -97.8306 289° West 469 540 28,400 900 Climbing Houston Center
10:47AM 30.4953 -97.9514 307° West 462 532 29,300 960 Climbing Houston Center
10:48AM 30.5783 -98.0689 309° West 464 534 30,500 1,260 Climbing Houston Center
10:49AM 30.6589 -98.1828 309° West 453 521 31,900 1,080 Climbing Houston Center
10:50AM 30.7364 -98.2942 309° West 440 506 32,800 840 Climbing Houston Center
10:51AM 30.8264 -98.4239 309° West 437 503 33,700 540 Climbing Houston Center
10:52AM 30.9042 -98.5356 309° West 439 505 34,000 120 Climbing Houston Center
10:54AM 30.9819 -98.6506 308° West 444 511 34,000  Level Houston Center
10:55AM 31.0614 -98.7639 309° West 445 512 34,000  Level Houston Center
10:56AM 31.1408 -98.8772 309° West 445 512 34,000  Level Houston Center
10:57AM 31.2194 -98.9925 309° West 447 514 34,000  Level Houston Center
10:58AM 31.2989 -99.1086 309° West 451 519 34,000  Level Houston Center
10:59AM 31.3786 -99.2247 309° West 453 521 34,000  Level Houston Center
11:00AM 31.4586 -99.3431 308° West 457 526 34,000  Level Houston Center
11:01AM 31.5378 -99.4606 308° West 454 522 34,000 -60 Level Houston Center
11:02AM 31.6281 -99.5889 310° West 456 525 33,900  Descending Houston Center
11:03AM 31.6814 -99.6739 306° West 458 527 34,000  Climbing Fort Worth Center
11:04AM 31.7606 -99.7956 307° West 458 527 34,000  Level Fort Worth Center
11:05AM 31.8417 -99.9150 309° West 470 541 34,000  Level Fort Worth Center
11:06AM 31.9247 -100.0397 308° West 470 541 34,000  Level Fort Worth Center
11:07AM 32.0036 -100.1597 308° West 470 541 34,000  Level Fort Worth Center
11:08AM 32.0864 -100.2847 308° West 470 541 34,000  Level Fort Worth Center
11:09AM 32.1692 -100.4075 309° West 470 541 34,000  Level Fort Worth Center
11:10AM 32.2517 -100.5356 307° West 470 541 34,000  Level Fort Worth Center
11:11AM 32.3422 -100.6739 308° West 475 547 34,000  Level Fort Worth Center
11:12AM 32.4283 -100.8025 308° West 485 558 34,000  Level Fort Worth Center
11:13AM 32.5106 -100.9289 308° West 497 572 34,000  Level Fort Worth Center
11:14AM 32.5947 -101.0553 308° West 497 572 34,000  Level Fort Worth Center
11:15AM 32.6806 -101.1847 308° West 492 566 34,000  Level Fort Worth Center
11:16AM 32.7581 -101.3139 306° West 492 566 34,000  Level Fort Worth Center
11:17AM 32.8397 -101.4386 308° West 492 566 34,000  Level Fort Worth Center
11:18AM 32.9231 -101.5661 308° West 492 566 34,000  Level Fort Worth Center
11:19AM 33.0006 -101.6886 307° West 481 554 34,000  Level Fort Worth Center
11:20AM 33.0758 -101.8039 308° West 481 554 34,000  Level Fort Worth Center
11:21AM 33.1647 -101.9447 307° West 481 554 34,000  Level Fort Worth Center
11:22AM 33.2336 -102.0597 306° West 481 554 34,000  Level Fort Worth Center
11:23AM 33.3203 -102.1961 307° West 481 554 34,000  Level Fort Worth Center
11:24AM 33.3931 -102.3119 307° West 481 554 34,000  Level Fort Worth Center
11:25AM 33.4814 -102.4514 307° West 476 548 34,000  Level Fort Worth Center
11:26AM 33.5597 -102.5756 307° West 476 548 34,000 -60 Level Fort Worth Center
11:27AM 33.6419 -102.7050 307° West 471 542 33,900  Descending Fort Worth Center
11:28AM 33.7178 -102.8319 306° West 478 550 34,000 60 Climbing Fort Worth Center
11:28AM 33.7567 -102.8881 310° West 478 550 34,000  Level Albuquerque Center
11:29AM 33.8361 -103.0144 307° West 476 548 34,000  Level Albuquerque Center
11:30AM 33.9142 -103.1403 307° West 472 543 34,000  Level Albuquerque Center
11:31AM 33.9933 -103.2683 307° West 475 547 34,000  Level Albuquerque Center
11:32AM 34.0692 -103.3975 305° West 474 545 34,000  Level Albuquerque Center
11:33AM 34.1611 -103.5525 306° West 475 547 34,000  Level Albuquerque Center
11:34AM 34.2417 -103.6856 306° West 469 540 34,000  Level Albuquerque Center
11:35AM 34.3200 -103.8122 307° West 467 537 34,000  Level Albuquerque Center
11:36AM 34.3958 -103.9419 305° West 466 536 34,000  Level Albuquerque Center
11:37AM 34.4731 -104.0706 306° West 467 537 34,000  Level Albuquerque Center
11:38AM 34.5494 -104.1978 306° West 463 533 34,000  Level Albuquerque Center
11:39AM 34.6242 -104.3242 306° West 457 526 34,000  Level Albuquerque Center
11:40AM 34.7008 -104.4525 306° West 460 529 34,000  Level Albuquerque Center
11:41AM 34.7761 -104.5817 305° West 461 531 34,000  Level Albuquerque Center
11:42AM 34.8522 -104.7114 306° West 463 533 34,000  Level Albuquerque Center
11:43AM 34.9286 -104.8403 306° West 463 533 34,000  Level Albuquerque Center
11:45AM 35.0164 -104.9911 305° West 462 532 34,000  Level Albuquerque Center
11:46AM 35.0919 -105.1194 306° West 461 531 34,000  Level Albuquerque Center
11:47AM 35.1678 -105.2489 306° West 462 532 34,000  Level Albuquerque Center
11:48AM 35.2419 -105.3786 305° West 461 531 34,000  Level Albuquerque Center
11:49AM 35.3156 -105.5075 305° West 459 528 34,000  Level Albuquerque Center
11:50AM 35.3897 -105.6369 305° West 459 528 34,000  Level Albuquerque Center
11:51AM 35.4647 -105.7658 306° West 459 528 34,000  Level Albuquerque Center
11:52AM 35.5400 -105.9000 305° West 458 527 34,000  Level Albuquerque Center
11:53AM 35.6131 -106.0278 305° West 460 529 34,000  Level Albuquerque Center
11:54AM 35.6858 -106.1575 305° West 461 531 34,000  Level Albuquerque Center
11:55AM 35.7708 -106.3039 306° West 460 529 34,000  Level Albuquerque Center
11:56AM 35.8589 -106.4094 316° Northwest 457 526 34,000  Level Albuquerque Center
11:57AM 35.9558 -106.5292 315° West 457 526 34,000  Level Albuquerque Center
11:58AM 36.0456 -106.6403 315° West 458 527 34,000  Level Albuquerque Center
11:59AM 36.1342 -106.7514 315° West 457 526 34,000  Level Albuquerque Center
12:00PM 36.2308 -106.8703 315° West 458 527 34,000  Level Albuquerque Center
12:01PM 36.3300 -106.9958 314° West 456 525 34,000  Level Albuquerque Center
12:02PM 36.3869 -107.0647 316° Northwest 454 522 34,000  Level Denver Center
12:03PM 36.4853 -107.1908 314° West 455 524 34,000  Level Denver Center
12:04PM 36.5711 -107.2981 315° West 456 525 34,000  Level Denver Center
12:05PM 36.6678 -107.4217 314° West 452 520 34,000  Level Denver Center
12:06PM 36.7533 -107.5314 314° West 457 526 34,000  Level Denver Center
12:07PM 36.8536 -107.6594 314° West 462 532 34,000  Level Denver Center
12:08PM 36.9386 -107.7672 315° West 456 525 34,000  Level Denver Center
12:09PM 37.0361 -107.8931 314° West 451 519 34,000  Level Denver Center
12:10PM 37.1208 -108.0028 314° West 456 525 34,000  Level Denver Center
12:11PM 37.2189 -108.1311 314° West 458 527 34,000  Level Denver Center
12:12PM 37.3022 -108.2403 314° West 455 524 34,000  Level Denver Center
12:13PM 37.4000 -108.3675 314° West 454 522 34,000  Level Denver Center
12:14PM 37.4833 -108.4764 314° West 453 521 34,000  Level Denver Center
12:15PM 37.5794 -108.6008 314° West 445 512 34,000  Level Denver Center
12:16PM 37.6622 -108.7111 313° West 448 516 34,000  Level Denver Center
12:17PM 37.7589 -108.8414 313° West 454 522 34,000  Level Denver Center
12:18PM 37.8425 -108.9494 314° West 450 518 34,000  Level Denver Center
12:19PM 37.9386 -109.0778 314° West 453 521 34,000  Level Denver Center
12:20PM 38.0200 -109.1886 313° West 449 517 34,000  Level Denver Center
12:21PM 38.1125 -109.3122 314° West 446 513 34,000  Level Denver Center
12:22PM 38.1942 -109.4233 313° West 447 514 34,000  Level Denver Center
12:23PM 38.2903 -109.5539 313° West 450 518 34,000  Level Denver Center
12:25PM 38.3733 -109.6669 313° West 454 522 34,000  Level Denver Center
12:26PM 38.4556 -109.7789 313° West 451 519 34,000  Level Denver Center
12:27PM 38.5503 -109.9083 313° West 446 513 34,000  Level Denver Center
12:28PM 38.6317 -110.0197 313° West 445 512 34,000 60 Level Denver Center
12:29PM 38.7264 -110.1517 313° West 447 514 34,200  Climbing Salt Lake Center
12:30PM 38.8211 -110.2836 313° West 448 516 34,100 -120 Descending Salt Lake Center
12:31PM 38.9019 -110.3958 313° West 451 519 34,000 -60 Descending Denver Center
12:32PM 38.9822 -110.5086 313° West 450 518 34,000  Level Denver Center
12:33PM 39.0775 -110.6406 313° West 448 516 34,000  Level Denver Center
12:34PM 39.1686 -110.7711 312° West 442 509 34,000  Level Salt Lake Center
12:35PM 39.2475 -110.8842 312° West 443 510 34,000  Level Salt Lake Center
12:36PM 39.3425 -111.0164 313° West 444 511 34,000  Level Salt Lake Center
12:37PM 39.4206 -111.1278 312° West 439 505 34,000  Level Salt Lake Center
12:38PM 39.4975 -111.2397 312° West 436 502 34,000  Level Salt Lake Center
12:39PM 39.5933 -111.3772 312° West 437 503 34,000  Level Salt Lake Center
12:40PM 39.6747 -111.4939 312° West 437 503 34,000  Level Salt Lake Center
12:41PM 39.7569 -111.6147 312° West 445 512 34,000  Level Salt Lake Center
12:42PM 39.8372 -111.7331 311° West 438 504 34,000  Level Salt Lake Center
12:43PM 39.9186 -111.8500 312° West 434 499 34,000  Level Salt Lake Center
12:44PM 39.9992 -111.9683 312° West 434 499 34,000  Level Salt Lake Center
12:45PM 40.0783 -112.0858 311° West 433 498 34,000  Level Salt Lake Center
12:46PM 40.1739 -112.2267 312° West 431 496 34,000  Level Salt Lake Center
12:47PM 40.2531 -112.3425 312° West 428 493 34,000  Level Salt Lake Center
12:48PM 40.3322 -112.4589 312° West 427 491 34,000  Level Salt Lake Center
12:49PM 40.4094 -112.5744 311° West 422 486 34,000  Level Salt Lake Center
12:50PM 40.4889 -112.6922 312° West 430 495 34,000  Level Salt Lake Center
12:51PM 40.5653 -112.8083 311° West 421 484 34,000  Level Salt Lake Center
12:53PM 40.6589 -112.9475 312° West 421 484 34,000  Level Salt Lake Center
12:54PM 40.7347 -113.0656 310° West 421 484 34,000  Level Salt Lake Center
12:55PM 40.8128 -113.1825 311° West 422 486 34,000  Level Salt Lake Center
12:56PM 40.8903 -113.3000 311° West 423 487 34,000  Level Salt Lake Center
12:57PM 40.9667 -113.4181 311° West 422 486 34,000  Level Salt Lake Center
12:58PM 41.0431 -113.5361 311° West 422 486 34,000  Level Salt Lake Center
12:59PM 41.1192 -113.6536 311° West 422 486 34,000  Level Salt Lake Center
01:00PM 41.2092 -113.7956 310° West 420 483 34,000  Level Salt Lake Center
01:01PM 41.2847 -113.9136 310° West 420 483 34,000  Level Salt Lake Center
01:02PM 41.3597 -114.0333 310° West 421 484 34,000  Level Salt Lake Center
01:03PM 41.4364 -114.1517 311° West 422 486 34,000  Level Salt Lake Center
01:04PM 41.5136 -114.2728 310° West 428 493 34,000  Level Salt Lake Center
01:05PM 41.5892 -114.3936 310° West 426 490 34,000  Level Salt Lake Center
01:06PM 41.6800 -114.5389 310° West 429 494 34,000  Level Salt Lake Center
01:07PM 41.7544 -114.6572 310° West 433 498 34,000  Level Salt Lake Center
01:08PM 41.8408 -114.7969 310° West 436 502 34,000  Level Salt Lake Center
01:09PM 41.9175 -114.9197 310° West 443 510 34,000  Level Salt Lake Center
01:10PM 42.0042 -115.0594 310° West 437 503 34,000  Level Salt Lake Center
01:11PM 42.0792 -115.1819 310° West 444 511 34,000  Level Salt Lake Center
01:12PM 42.1572 -115.3122 309° West 440 506 34,000  Level Salt Lake Center
01:13PM 42.2433 -115.4542 309° West 438 504 34,000  Level Salt Lake Center
01:14PM 42.3167 -115.5761 309° West 438 504 34,000  Level Salt Lake Center
01:15PM 42.4025 -115.7183 309° West 436 502 34,000  Level Salt Lake Center
01:16PM 42.4761 -115.8408 309° West 437 503 34,000  Level Salt Lake Center
01:17PM 42.5481 -115.9625 309° West 433 498 34,000  Level Salt Lake Center
01:18PM 42.6322 -116.1033 309° West 430 495 34,000  Level Salt Lake Center
01:19PM 42.7039 -116.2253 309° West 430 495 34,000  Level Salt Lake Center
01:20PM 42.7869 -116.3669 309° West 429 494 34,000  Level Salt Lake Center
01:21PM 42.8583 -116.4869 309° West 425 489 34,000  Level Salt Lake Center
01:22PM 42.9419 -116.6303 309° West 429 494 34,000  Level Salt Lake Center
01:24PM 43.0133 -116.7522 309° West 429 494 34,000  Level Salt Lake Center
01:25PM 43.0958 -116.8958 308° West 429 494 34,000  Level Salt Lake Center
01:26PM 43.2253 -117.1189 309° West 426 490 34,000  Level Seattle Center
01:27PM 43.2950 -117.2428 308° West 426 490 34,000  Level Seattle Center
01:29PM 43.3886 -117.4069 308° West 426 490 34,000  Level Salt Lake Center
01:30PM 43.4697 -117.5497 308° West 425 489 34,000  Level Salt Lake Center
01:31PM 43.5389 -117.6733 308° West 424 488 34,000  Level Salt Lake Center
01:32PM 43.6208 -117.8167 308° West 426 490 34,000  Level Salt Lake Center
01:33PM 43.6903 -117.9406 308° West 425 489 34,000  Level Salt Lake Center
01:34PM 43.7706 -118.0858 307° West 425 489 34,000  Level Salt Lake Center
01:35PM 43.8394 -118.2106 307° West 424 488 34,000  Level Salt Lake Center
01:36PM 43.9139 -118.3444 308° West 425 489 34,000  Level Salt Lake Center
01:37PM 43.9639 -118.4375 307° West 420 483 34,000  Level Seattle Center
01:38PM 44.0328 -118.5631 307° West 423 487 34,000  Level Seattle Center
01:39PM 44.0972 -118.6825 307° West 425 489 34,000  Level Seattle Center
01:40PM 44.1686 -118.8119 308° West 424 488 34,000  Level Seattle Center
01:41PM 44.2544 -118.9683 307° West 425 489 34,000  Level Seattle Center
01:42PM 44.3258 -119.1003 307° West 427 491 34,000  Level Seattle Center
01:43PM 44.3967 -119.2333 307° West 429 494 34,000  Level Seattle Center
01:44PM 44.4667 -119.3656 307° West 425 489 34,000  Level Seattle Center
01:45PM 44.5378 -119.4997 307° West 428 493 34,000  Level Seattle Center
01:46PM 44.6078 -119.6328 306° West 426 490 34,000  Level Seattle Center
01:47PM 44.6819 -119.7631 309° West 425 489 34,000  Level Seattle Center
01:48PM 44.7622 -119.8869 312° West 428 493 34,000  Level Seattle Center
01:49PM 44.8433 -120.0139 312° West 428 493 34,000 -420 Level Seattle Center
01:50PM 44.9261 -120.1414 313° West 428 493 33,200 -1,320 Descending Seattle Center
01:51PM 45.0067 -120.2681 312° West 428 493 31,400 -2,220 Descending Seattle Center
01:52PM 45.0869 -120.3931 312° West 430 495 28,700 -2,100 Descending Seattle Center
01:53PM 45.1625 -120.5139 312° West 414 476 27,100 -1,740 Descending Seattle Center
01:54PM 45.2158 -120.6442 300° West 383 441 25,200 -2,220 Descending Seattle Center
01:55PM 45.2761 -120.8011 299° West 379 436 22,700 -2,220 Descending Seattle Center
01:56PM 45.3253 -120.9292 299° West 373 429 20,700 -2,100 Descending Seattle Center
01:57PM 45.3744 -121.0569 299° West 370 426 18,400 -2,160 Descending Seattle Center
01:58PM 45.4217 -121.1828 298° West 364 419 16,400 -1,920 Descending Seattle Center
01:59PM 45.4497 -121.3083 288° West 348 400 14,800 -1,860 Descending Seattle Center
02:00PM 45.4764 -121.4411 286° West 338 389 12,700 -1,860 Descending Seattle Center
02:01PM 45.5067 -121.5961 286° West 329 379 10,700 -1,320 Descending Seattle Center
02:02PM 45.5253 -121.6861 286° West 307 353 10,100 -1,200 Descending Seattle Center
02:03PM 45.5328 -121.7972 276° West 286 329 8,400 -1,620 Descending Seattle Center
02:04PM 45.5192 -121.9319 262° West 285 328 6,900 -1,020 Descending Seattle Center
02:05PM 45.5122 -122.0303 264° West 281 323 6,400 -780 Descending Seattle Center
02:06PM 45.5019 -122.1375 262° West 277 319 5,400 -1,260 Descending Seattle Center
02:07PM 45.4875 -122.2653 261° West 272 313 3,900 -1,020 Descending Seattle Center
02:08PM 45.5019 -122.3581 283° West 213 245 3,400 -540 Descending Seattle Center